createdAt,value
2022-11-20T00:01:25.373Z,2.50
2022-11-20T00:04:27.170Z,3.45
2022-11-20T00:07:28.930Z,2.75
2022-11-20T00:10:30.762Z,2.60
2022-11-20T00:13:33.248Z,2.50
2022-11-20T00:16:35.301Z,2.45
2022-11-20T00:19:37.058Z,2.33
2022-11-20T00:22:38.785Z,3.60
2022-11-20T00:25:40.492Z,2.20
2022-11-20T00:28:43.640Z,5.63
2022-11-20T00:31:45.361Z,2.65
2022-11-20T00:34:47.057Z,2.50
2022-11-20T00:37:48.796Z,2.00
2022-11-20T00:40:57.052Z,2.60
2022-11-20T00:43:58.892Z,2.50
2022-11-20T00:47:00.616Z,2.50
2022-11-20T00:50:02.319Z,2.17
2022-11-20T00:53:04.080Z,2.20
2022-11-20T00:56:08.539Z,2.35
2022-11-20T00:59:11.829Z,2.35
2022-11-20T01:02:13.598Z,2.03
2022-11-20T01:05:15.388Z,2.03
2022-11-20T01:08:17.089Z,2.20
2022-11-20T01:11:22.912Z,2.70
2022-11-20T01:14:24.663Z,2.10
2022-11-20T01:17:26.397Z,2.20
2022-11-20T01:20:28.113Z,1.77
2022-11-20T01:23:38.249Z,1.80
2022-11-20T01:26:42.593Z,2.20
2022-11-20T01:29:44.287Z,2.08
2022-11-20T01:32:46.065Z,3.45
2022-11-20T01:35:47.857Z,1.95
2022-11-20T01:38:55.762Z,2.28
2022-11-20T01:42:16.488Z,1.75
2022-11-20T01:45:53.689Z,1.85
2022-11-20T01:49:06.989Z,2.03
2022-11-20T01:52:23.845Z,2.50
2022-11-20T01:55:35.487Z,2.05
2022-11-20T01:58:42.205Z,2.00
2022-11-20T02:01:44.260Z,3.60
2022-11-20T02:04:46.937Z,2.33
2022-11-20T02:07:49.477Z,2.38
2022-11-20T02:10:51.255Z,2.42
2022-11-20T02:13:54.072Z,2.42
2022-11-20T02:16:56.610Z,1.88
2022-11-20T02:19:58.465Z,2.38
2022-11-20T02:23:09.185Z,2.10
2022-11-20T02:26:14.230Z,4.68
2022-11-20T02:29:20.236Z,1.80
2022-11-20T02:32:25.111Z,2.85
2022-11-20T02:35:26.815Z,2.10
2022-11-20T02:38:28.640Z,1.70
2022-11-20T02:41:38.185Z,2.13
2022-11-20T02:44:40.232Z,2.08
2022-11-20T02:47:41.929Z,1.77
2022-11-20T02:50:43.726Z,2.13
2022-11-20T02:53:45.496Z,1.65
2022-11-20T02:56:47.251Z,1.60
2022-11-20T02:59:49.065Z,1.55
2022-11-20T03:02:50.802Z,1.73
2022-11-20T03:05:52.511Z,2.10
2022-11-20T03:08:54.288Z,1.73
2022-11-20T03:11:56.375Z,1.83
2022-11-20T03:14:58.111Z,1.90
2022-11-20T03:17:59.818Z,4.88
2022-11-20T03:21:01.657Z,1.77
2022-11-20T03:24:03.538Z,2.25
2022-11-20T03:27:05.268Z,1.58
2022-11-20T03:30:07.677Z,1.95
2022-11-20T03:33:09.444Z,2.42
2022-11-20T03:36:14.025Z,1.58
2022-11-20T03:39:15.782Z,1.70
2022-11-20T03:42:35.940Z,3.17
2022-11-20T03:45:37.663Z,1.77
2022-11-20T03:48:39.374Z,1.52
2022-11-20T03:51:41.112Z,1.52
2022-11-20T03:54:42.915Z,1.60
2022-11-20T03:57:44.674Z,1.65
2022-11-20T04:00:46.421Z,1.58
2022-11-20T04:03:48.933Z,1.63
2022-11-20T04:06:50.676Z,1.75
2022-11-20T04:09:52.374Z,1.98
2022-11-20T04:12:54.070Z,1.67
2022-11-20T04:15:58.791Z,1.73
2022-11-20T04:19:03.253Z,1.40
2022-11-20T04:22:05.019Z,1.45
2022-11-20T04:25:07.057Z,1.48
2022-11-20T04:28:08.817Z,1.80
2022-11-20T04:31:13.303Z,1.35
2022-11-20T04:34:15.115Z,1.42
2022-11-20T04:37:16.822Z,1.55
2022-11-20T04:40:18.634Z,1.45
2022-11-20T04:43:20.631Z,1.35
2022-11-20T04:46:22.366Z,1.45
2022-11-20T04:49:25.513Z,1.88
2022-11-20T04:52:27.451Z,1.27
2022-11-20T04:55:29.173Z,1.50
2022-11-20T04:58:30.973Z,1.55
2022-11-20T05:01:33.549Z,1.50
2022-11-20T05:04:35.380Z,1.40
2022-11-20T05:07:37.103Z,1.45
2022-11-20T05:10:38.820Z,1.25
2022-11-20T05:13:41.009Z,1.38
2022-11-20T05:16:42.941Z,1.52
2022-11-20T05:19:44.673Z,1.48
2022-11-20T05:22:46.878Z,1.60
2022-11-20T05:25:48.612Z,2.05
2022-11-20T05:28:51.559Z,3.63
2022-11-20T05:31:53.259Z,1.15
2022-11-20T05:34:54.944Z,1.48
2022-11-20T05:37:56.630Z,1.42
2022-11-20T05:41:05.790Z,1.20
2022-11-20T05:44:07.606Z,1.30
2022-11-20T05:47:09.322Z,1.58
2022-11-20T05:50:11.050Z,1.35
2022-11-20T05:53:12.813Z,1.35
2022-11-20T05:56:17.578Z,1.00
2022-11-20T05:59:19.443Z,1.27
2022-11-20T06:02:21.440Z,1.10
2022-11-20T06:05:23.148Z,1.30
2022-11-20T06:08:24.895Z,2.45
2022-11-20T06:11:26.654Z,0.85
2022-11-20T06:14:28.423Z,1.33
2022-11-20T06:17:30.148Z,1.33
2022-11-20T06:20:31.928Z,1.10
2022-11-20T06:23:34.932Z,1.30
2022-11-20T06:26:37.687Z,1.25
2022-11-20T06:29:39.399Z,1.35
2022-11-20T06:32:41.098Z,1.25
2022-11-20T06:35:42.791Z,1.23
2022-11-20T06:38:44.855Z,1.35
2022-11-20T06:41:46.589Z,2.35
2022-11-20T06:44:48.264Z,0.98
2022-11-20T06:47:50.032Z,1.30
2022-11-20T06:50:51.913Z,1.45
2022-11-20T06:53:54.278Z,0.90
2022-11-20T06:56:55.968Z,1.20
2022-11-20T06:59:57.682Z,1.20
2022-11-20T07:02:59.388Z,1.23
2022-11-20T07:06:02.034Z,1.10
2022-11-20T07:09:05.438Z,1.30
2022-11-20T07:12:09.317Z,1.67
2022-11-20T07:15:11.179Z,1.05
2022-11-20T07:18:12.908Z,1.08
2022-11-20T07:21:14.842Z,1.27
2022-11-20T07:24:16.558Z,1.27
2022-11-20T07:27:19.184Z,1.20
2022-11-20T07:30:20.965Z,1.05
2022-11-20T07:33:22.690Z,1.33
2022-11-20T07:36:24.406Z,1.10
2022-11-20T07:39:26.128Z,1.52
2022-11-20T07:42:27.842Z,1.23
2022-11-20T07:45:31.464Z,0.80
2022-11-20T07:48:33.275Z,0.93
2022-11-20T07:51:34.974Z,1.40
2022-11-20T07:54:36.715Z,1.00
2022-11-20T07:57:38.879Z,0.75
2022-11-20T08:00:41.603Z,1.98
2022-11-20T08:03:43.371Z,1.27
2022-11-20T08:06:45.163Z,1.08
2022-11-20T08:09:46.966Z,1.05
2022-11-20T08:13:11.486Z,0.90
2022-11-20T08:16:13.211Z,5.80
2022-11-20T08:19:17.212Z,1.13
2022-11-20T08:22:18.997Z,2.88
2022-11-20T08:25:20.718Z,2.15
2022-11-20T08:28:22.757Z,1.55
2022-11-20T08:31:25.944Z,1.95
2022-11-20T08:34:27.640Z,1.25
2022-11-20T08:37:29.385Z,3.75
2022-11-20T08:40:31.674Z,4.00
2022-11-20T08:43:33.481Z,3.00
2022-11-20T08:46:38.208Z,2.35
2022-11-20T08:49:39.932Z,3.45
2022-11-20T08:52:42.430Z,2.53
2022-11-20T08:55:44.157Z,2.28
2022-11-20T09:02:08.550Z,2.72
2022-11-20T09:05:10.245Z,2.08
2022-11-20T09:08:12.119Z,2.13
2022-11-20T09:11:13.917Z,2.30
2022-11-20T09:14:15.692Z,1.50
2022-11-20T09:17:17.910Z,2.25
2022-11-20T09:20:20.301Z,1.52
2022-11-20T09:23:22.045Z,2.58
2022-11-20T09:26:23.758Z,2.03
2022-11-20T09:29:25.534Z,3.28
2022-11-20T09:32:27.267Z,6.60
2022-11-20T09:35:28.948Z,12.05
2022-11-20T09:38:30.681Z,7.60
2022-11-20T09:41:48.715Z,4.00
2022-11-20T09:48:00.156Z,12.90
2022-11-20T09:51:07.279Z,8.00
2022-11-20T09:54:27.544Z,6.85
2022-11-20T09:57:43.515Z,9.05
2022-11-20T10:00:46.412Z,3.95
2022-11-20T10:03:59.607Z,6.25
2022-11-20T10:07:36.272Z,4.53
2022-11-20T10:10:50.765Z,5.75
2022-11-20T10:13:57.181Z,5.13
2022-11-20T10:17:23.617Z,5.38
2022-11-20T10:20:44.185Z,4.10
2022-11-20T10:24:04.490Z,4.32
2022-11-20T10:27:43.992Z,5.63
2022-11-20T10:30:49.264Z,5.50
2022-11-20T10:34:11.766Z,4.40
2022-11-20T10:37:22.200Z,4.60
2022-11-20T10:40:28.577Z,3.83
2022-11-20T10:43:34.620Z,3.60
2022-11-20T10:46:45.879Z,2.97
2022-11-20T10:49:56.140Z,2.95
2022-11-20T10:53:17.558Z,3.00
2022-11-20T10:56:46.847Z,6.00
2022-11-20T11:00:11.932Z,4.55
2022-11-20T11:03:28.198Z,3.22
2022-11-20T11:06:44.821Z,3.35
2022-11-20T11:09:53.606Z,6.35
2022-11-20T11:12:55.368Z,2.78
2022-11-20T11:15:58.388Z,2.50
2022-11-20T11:19:15.670Z,3.35
2022-11-20T11:22:19.266Z,3.30
2022-11-20T11:25:30.052Z,2.50
2022-11-20T11:28:32.725Z,2.60
2022-11-20T11:31:36.147Z,3.00
2022-11-20T11:34:38.045Z,3.20
2022-11-20T11:37:40.515Z,2.38
2022-11-20T11:40:42.727Z,2.58
2022-11-20T11:44:12.839Z,3.00
2022-11-20T11:47:27.547Z,4.13
2022-11-20T11:50:30.500Z,4.65
2022-11-20T11:53:34.481Z,3.17
2022-11-20T11:56:36.388Z,4.03
2022-11-20T12:00:02.068Z,2.45
2022-11-20T12:03:38.590Z,2.25
2022-11-20T12:06:45.064Z,3.03
2022-11-20T12:09:52.825Z,1.98
2022-11-20T12:13:04.774Z,2.75
2022-11-20T12:16:10.649Z,3.08
2022-11-20T12:19:14.737Z,2.15
2022-11-20T12:22:22.396Z,2.88
2022-11-20T12:25:35.660Z,2.10
2022-11-20T12:28:54.089Z,4.03
2022-11-20T12:32:15.295Z,1.83
2022-11-20T12:35:32.349Z,2.30
2022-11-20T12:38:55.733Z,4.07
2022-11-20T12:42:34.629Z,4.70
2022-11-20T12:46:13.771Z,2.42
2022-11-20T12:49:30.895Z,2.10
2022-11-20T12:52:42.732Z,5.43
2022-11-20T12:55:50.505Z,3.50
2022-11-20T12:59:10.166Z,6.22
2022-11-20T13:02:45.913Z,1.90
2022-11-20T13:06:05.274Z,2.35
2022-11-20T13:09:11.807Z,2.80
2022-11-20T13:12:25.594Z,3.58
2022-11-20T13:15:30.513Z,4.05
2022-11-20T13:18:41.218Z,3.75
2022-11-20T13:21:47.188Z,2.42
2022-11-20T13:24:53.240Z,3.00
2022-11-20T13:27:57.173Z,1.55
2022-11-20T13:31:00.236Z,1.92
2022-11-20T13:34:06.219Z,2.05
2022-11-20T13:37:30.337Z,3.25
2022-11-20T13:40:32.446Z,2.35
2022-11-20T13:43:41.416Z,2.33
2022-11-20T13:46:45.614Z,3.45
2022-11-20T13:49:49.190Z,2.08
2022-11-20T13:53:00.631Z,3.95
2022-11-20T13:56:11.300Z,1.70
2022-11-20T13:59:31.127Z,3.03
2022-11-20T14:02:33.008Z,3.50
2022-11-20T14:05:39.479Z,1.42
2022-11-20T14:08:46.607Z,2.85
2022-11-20T14:11:48.832Z,3.55
2022-11-20T14:14:55.428Z,1.67
2022-11-20T14:17:57.639Z,1.67
2022-11-20T14:21:02.564Z,3.08
2022-11-20T14:24:08.239Z,2.70
2022-11-20T14:27:19.666Z,1.48
2022-11-20T14:30:27.651Z,4.88
2022-11-20T14:33:29.635Z,1.73
2022-11-20T14:36:31.419Z,1.50
2022-11-20T14:39:34.799Z,8.15
2022-11-20T14:42:38.350Z,2.03
2022-11-20T14:45:40.361Z,1.50
2022-11-20T14:48:49.040Z,4.15
2022-11-20T14:52:04.066Z,1.65
2022-11-20T14:55:06.176Z,1.50
2022-11-20T14:58:25.387Z,1.50
2022-11-20T15:01:32.164Z,1.67
2022-11-20T15:04:33.891Z,1.40
2022-11-20T15:07:41.007Z,1.83
2022-11-20T15:10:51.325Z,3.10
2022-11-20T15:13:53.111Z,1.67
2022-11-20T15:16:55.188Z,2.47
2022-11-20T15:19:57.138Z,1.65
2022-11-20T15:22:58.970Z,2.45
2022-11-20T15:26:00.762Z,1.60
2022-11-20T15:29:02.484Z,1.58
2022-11-20T15:32:07.929Z,1.60
2022-11-20T15:35:12.573Z,1.52
2022-11-20T15:38:14.382Z,2.22
2022-11-20T15:41:16.121Z,2.08
2022-11-20T15:44:17.882Z,2.13
2022-11-20T15:47:21.981Z,1.27
2022-11-20T15:50:30.110Z,1.40
2022-11-20T15:53:31.849Z,1.48
2022-11-20T15:56:34.394Z,1.83
2022-11-20T15:59:40.604Z,2.45
2022-11-20T16:02:42.302Z,1.40
2022-11-20T16:05:44.822Z,2.25
2022-11-20T16:08:46.949Z,1.30
2022-11-20T16:11:48.727Z,1.02
2022-11-20T16:15:13.468Z,1.42
2022-11-20T16:18:18.809Z,1.63
2022-11-20T16:21:20.575Z,1.30
2022-11-20T16:24:22.566Z,1.88
2022-11-20T16:27:24.533Z,1.52
2022-11-20T16:30:26.499Z,1.60
2022-11-20T16:33:28.202Z,182.00
2022-11-20T16:36:30.864Z,122.07
2022-11-20T16:39:32.564Z,107.68
2022-11-20T16:42:35.316Z,98.35
2022-11-20T16:45:42.104Z,103.55
2022-11-20T16:48:43.874Z,106.68
2022-11-20T16:51:45.658Z,95.32
2022-11-20T16:54:47.401Z,93.75
2022-11-20T16:57:49.144Z,181.73
2022-11-20T17:00:51.998Z,137.48
2022-11-20T17:03:56.864Z,133.07
2022-11-20T17:07:01.450Z,123.22
2022-11-20T17:10:05.935Z,122.40
2022-11-20T17:13:07.627Z,115.82
2022-11-20T17:16:15.698Z,108.18
2022-11-20T17:19:17.447Z,111.03
2022-11-20T17:22:19.236Z,102.68
2022-11-20T17:25:21.123Z,99.85
2022-11-20T17:28:22.877Z,97.75
2022-11-20T17:31:24.851Z,93.30
2022-11-20T17:34:26.767Z,90.05
2022-11-20T17:37:28.634Z,85.55
2022-11-20T17:40:31.337Z,85.85
2022-11-20T17:43:35.897Z,84.20
2022-11-20T17:46:38.077Z,79.18
2022-11-20T17:49:39.781Z,75.35
2022-11-20T17:52:41.510Z,75.70
2022-11-20T17:56:01.645Z,70.97
2022-11-20T17:59:11.248Z,66.97
2022-11-20T18:02:13.031Z,64.60
2022-11-20T18:05:15.551Z,64.82
2022-11-20T18:08:17.312Z,62.85
2022-11-20T18:11:22.299Z,66.43
2022-11-20T18:14:32.288Z,57.25
2022-11-20T18:17:35.197Z,58.38
2022-11-20T18:20:40.002Z,59.78
2022-11-20T18:23:41.964Z,51.45
2022-11-20T18:26:44.746Z,55.45
2022-11-20T18:29:53.560Z,51.70
2022-11-20T18:32:55.644Z,46.65
2022-11-20T18:35:57.330Z,68.97
2022-11-20T18:39:00.003Z,75.97
2022-11-20T18:42:20.294Z,58.40
2022-11-20T18:45:22.009Z,51.58
2022-11-20T18:48:23.742Z,54.33
2022-11-20T18:51:25.452Z,50.22
2022-11-20T18:54:27.183Z,48.97
2022-11-20T18:57:29.769Z,50.78
2022-11-20T19:00:31.504Z,47.42
2022-11-20T19:03:33.767Z,46.35
2022-11-20T19:06:36.733Z,44.55
2022-11-20T19:09:43.176Z,48.13
2022-11-20T19:12:44.955Z,44.83
2022-11-20T19:15:46.688Z,42.63
2022-11-20T19:18:49.320Z,38.35
2022-11-20T19:21:52.108Z,40.83
2022-11-20T19:24:53.826Z,38.65
2022-11-20T19:27:55.574Z,37.08
2022-11-20T19:31:03.502Z,34.75
2022-11-20T19:34:05.361Z,37.00
2022-11-20T19:37:07.172Z,35.75
2022-11-20T19:40:09.127Z,33.05
2022-11-20T19:43:10.954Z,35.35
2022-11-20T19:46:12.791Z,35.70
2022-11-20T19:49:15.123Z,30.52
2022-11-20T19:52:16.858Z,31.75
2022-11-20T19:55:18.599Z,31.33
2022-11-20T19:58:20.316Z,31.17
2022-11-20T20:01:25.366Z,29.63
2022-11-20T20:04:27.405Z,30.05
2022-11-20T20:07:29.119Z,30.38
2022-11-20T20:10:31.001Z,31.98
2022-11-20T20:13:33.211Z,28.95
2022-11-20T20:16:35.550Z,26.40
2022-11-20T20:19:37.285Z,30.95
2022-11-20T20:22:39.025Z,27.85
2022-11-20T20:25:40.897Z,28.67
2022-11-20T20:28:42.668Z,23.38
2022-11-20T20:31:44.385Z,27.35
2022-11-20T20:34:46.063Z,23.33
2022-11-20T20:37:47.765Z,26.58
2022-11-20T20:40:49.623Z,23.00
2022-11-20T20:44:10.690Z,26.73
2022-11-20T20:47:12.449Z,23.65
2022-11-20T20:50:14.271Z,22.73
2022-11-20T20:53:15.996Z,24.30
2022-11-20T20:56:18.643Z,21.40
2022-11-20T20:59:20.394Z,22.45
2022-11-20T21:02:23.333Z,21.08
2022-11-20T21:05:25.093Z,22.20
2022-11-20T21:08:28.237Z,23.02
2022-11-20T21:11:29.982Z,22.30
2022-11-20T21:14:32.045Z,22.45
2022-11-20T21:17:33.817Z,21.80
2022-11-20T21:20:54.052Z,19.13
2022-11-20T21:23:58.831Z,21.10
2022-11-20T21:27:02.392Z,19.13
2022-11-20T21:30:04.363Z,21.15
2022-11-20T21:33:06.145Z,17.17
2022-11-20T21:36:09.324Z,18.88
2022-11-20T21:39:12.173Z,19.50
2022-11-20T21:42:14.777Z,17.98
2022-11-20T21:45:16.500Z,19.42
2022-11-20T21:48:18.418Z,18.42
2022-11-20T21:51:22.550Z,16.27
2022-11-20T21:54:24.528Z,18.17
2022-11-20T21:57:26.555Z,16.50
2022-11-20T22:00:28.282Z,17.42
2022-11-20T22:03:29.993Z,16.85
2022-11-20T22:06:33.514Z,16.75
2022-11-20T22:09:35.296Z,19.05
2022-11-20T22:12:37.053Z,18.00
2022-11-20T22:15:59.236Z,16.88
2022-11-20T22:19:01.070Z,15.40
2022-11-20T22:22:02.795Z,14.68
2022-11-20T22:25:04.847Z,14.50
2022-11-20T22:28:06.587Z,16.42
2022-11-20T22:31:11.016Z,15.88
2022-11-20T22:34:13.691Z,15.75
2022-11-20T22:37:15.419Z,14.00
2022-11-20T22:40:17.207Z,14.88
2022-11-20T22:43:18.956Z,12.82
2022-11-20T22:46:20.721Z,16.10
2022-11-20T22:49:22.446Z,15.60
2022-11-20T22:52:24.139Z,12.88
2022-11-20T22:55:25.845Z,14.77
2022-11-20T22:58:31.256Z,16.00
2022-11-20T23:01:36.958Z,13.50
2022-11-20T23:04:38.771Z,14.80
2022-11-20T23:07:41.229Z,14.73
2022-11-20T23:10:43.136Z,15.80
2022-11-20T23:13:46.116Z,14.25
2022-11-20T23:16:48.328Z,13.50
2022-11-20T23:19:50.118Z,11.60
2022-11-20T23:22:51.813Z,13.43
2022-11-20T23:25:53.515Z,16.52
2022-11-20T23:28:57.456Z,14.38
2022-11-20T23:31:59.239Z,15.13
2022-11-20T23:35:01.011Z,12.95
2022-11-20T23:38:02.779Z,12.85
2022-11-20T23:41:04.843Z,13.02
2022-11-20T23:44:06.781Z,12.68
2022-11-20T23:47:08.488Z,13.07
2022-11-20T23:50:10.217Z,11.15
2022-11-20T23:53:14.130Z,13.30
2022-11-20T23:56:15.920Z,13.05
2022-11-20T23:59:17.726Z,11.45
